sensor_id;sensor_type;location;lat;lon;timestamp;P1;durP1;ratioP1;P2;durP2;ratioP2
33824;SDS011;20127;48.962;8.342;2023-07-24T00:01:10;17.40;;;11.23;;
33824;SDS011;20127;48.962;8.342;2023-07-24T00:04:12;16.58;;;10.18;;
33824;SDS011;20127;48.962;8.342;2023-07-24T00:07:14;14.27;;;10.43;;
33824;SDS011;20127;48.962;8.342;2023-07-24T00:10:16;16.90;;;11.48;;
33824;SDS011;20127;48.962;8.342;2023-07-24T00:13:17;16.77;;;10.07;;
33824;SDS011;20127;48.962;8.342;2023-07-24T00:16:21;20.73;;;11.65;;
33824;SDS011;20127;48.962;8.342;2023-07-24T00:19:23;17.02;;;11.13;;
33824;SDS011;20127;48.962;8.342;2023-07-24T00:22:25;16.42;;;11.40;;
33824;SDS011;20127;48.962;8.342;2023-07-24T00:25:26;14.98;;;9.85;;
33824;SDS011;20127;48.962;8.342;2023-07-24T00:28:28;15.02;;;10.15;;
33824;SDS011;20127;48.962;8.342;2023-07-24T00:31:31;18.60;;;10.43;;
33824;SDS011;20127;48.962;8.342;2023-07-24T00:34:32;17.67;;;10.15;;
33824;SDS011;20127;48.962;8.342;2023-07-24T00:37:34;17.77;;;11.90;;
33824;SDS011;20127;48.962;8.342;2023-07-24T00:40:36;16.25;;;11.73;;
33824;SDS011;20127;48.962;8.342;2023-07-24T00:43:37;15.98;;;10.57;;
33824;SDS011;20127;48.962;8.342;2023-07-24T00:46:41;16.85;;;11.80;;
33824;SDS011;20127;48.962;8.342;2023-07-24T00:49:42;17.13;;;10.90;;
33824;SDS011;20127;48.962;8.342;2023-07-24T00:52:45;16.75;;;11.40;;
33824;SDS011;20127;48.962;8.342;2023-07-24T00:55:47;16.58;;;9.52;;
33824;SDS011;20127;48.962;8.342;2023-07-24T00:58:49;15.30;;;10.05;;
33824;SDS011;20127;48.962;8.342;2023-07-24T01:01:53;19.52;;;12.18;;
33824;SDS011;20127;48.962;8.342;2023-07-24T01:04:55;20.00;;;9.82;;
33824;SDS011;20127;48.962;8.342;2023-07-24T01:07:57;16.35;;;10.98;;
33824;SDS011;20127;48.962;8.342;2023-07-24T01:10:59;15.70;;;10.80;;
33824;SDS011;20127;48.962;8.342;2023-07-24T01:14:12;14.10;;;9.75;;
33824;SDS011;20127;48.962;8.342;2023-07-24T01:17:20;18.75;;;10.75;;
33824;SDS011;20127;48.962;8.342;2023-07-24T01:20:24;20.85;;;11.77;;
33824;SDS011;20127;48.962;8.342;2023-07-24T01:23:33;13.93;;;10.45;;
33824;SDS011;20127;48.962;8.342;2023-07-24T01:26:46;14.65;;;10.45;;
33824;SDS011;20127;48.962;8.342;2023-07-24T01:29:48;17.35;;;10.02;;
33824;SDS011;20127;48.962;8.342;2023-07-24T01:32:50;15.48;;;10.30;;
33824;SDS011;20127;48.962;8.342;2023-07-24T01:35:53;16.38;;;10.52;;
33824;SDS011;20127;48.962;8.342;2023-07-24T01:38:56;15.50;;;11.38;;
33824;SDS011;20127;48.962;8.342;2023-07-24T01:42:00;17.90;;;10.38;;
33824;SDS011;20127;48.962;8.342;2023-07-24T01:45:03;19.65;;;11.18;;
33824;SDS011;20127;48.962;8.342;2023-07-24T01:48:06;18.02;;;10.55;;
33824;SDS011;20127;48.962;8.342;2023-07-24T01:51:07;13.80;;;10.73;;
33824;SDS011;20127;48.962;8.342;2023-07-24T01:54:09;16.65;;;10.50;;
33824;SDS011;20127;48.962;8.342;2023-07-24T01:57:12;16.23;;;10.90;;
33824;SDS011;20127;48.962;8.342;2023-07-24T02:00:14;14.10;;;9.25;;
33824;SDS011;20127;48.962;8.342;2023-07-24T02:03:15;18.17;;;10.18;;
33824;SDS011;20127;48.962;8.342;2023-07-24T02:06:17;16.30;;;10.55;;
33824;SDS011;20127;48.962;8.342;2023-07-24T02:09:19;13.82;;;10.18;;
33824;SDS011;20127;48.962;8.342;2023-07-24T02:12:22;14.65;;;9.60;;
33824;SDS011;20127;48.962;8.342;2023-07-24T02:15:24;17.90;;;10.82;;
33824;SDS011;20127;48.962;8.342;2023-07-24T02:18:26;14.70;;;10.30;;
33824;SDS011;20127;48.962;8.342;2023-07-24T02:21:27;15.20;;;8.82;;
33824;SDS011;20127;48.962;8.342;2023-07-24T02:24:29;11.50;;;8.90;;
33824;SDS011;20127;48.962;8.342;2023-07-24T02:27:32;13.98;;;9.13;;
33824;SDS011;20127;48.962;8.342;2023-07-24T02:30:37;14.93;;;9.68;;
33824;SDS011;20127;48.962;8.342;2023-07-24T02:33:39;14.77;;;9.73;;
33824;SDS011;20127;48.962;8.342;2023-07-24T02:36:40;17.42;;;10.68;;
33824;SDS011;20127;48.962;8.342;2023-07-24T02:39:42;17.52;;;10.68;;
33824;SDS011;20127;48.962;8.342;2023-07-24T02:42:45;17.45;;;11.15;;
33824;SDS011;20127;48.962;8.342;2023-07-24T02:45:47;12.98;;;10.65;;
33824;SDS011;20127;48.962;8.342;2023-07-24T02:48:49;15.30;;;9.98;;
33824;SDS011;20127;48.962;8.342;2023-07-24T02:51:50;14.70;;;10.10;;
33824;SDS011;20127;48.962;8.342;2023-07-24T02:54:52;12.48;;;9.40;;
33824;SDS011;20127;48.962;8.342;2023-07-24T02:57:55;12.02;;;8.18;;
33824;SDS011;20127;48.962;8.342;2023-07-24T03:01:02;11.50;;;8.95;;
33824;SDS011;20127;48.962;8.342;2023-07-24T03:04:04;13.98;;;8.82;;
33824;SDS011;20127;48.962;8.342;2023-07-24T03:07:06;12.20;;;9.25;;
33824;SDS011;20127;48.962;8.342;2023-07-24T03:10:08;11.98;;;9.25;;
33824;SDS011;20127;48.962;8.342;2023-07-24T03:13:11;11.77;;;8.65;;
33824;SDS011;20127;48.962;8.342;2023-07-24T03:16:13;13.98;;;7.93;;
33824;SDS011;20127;48.962;8.342;2023-07-24T03:19:17;12.75;;;8.73;;
33824;SDS011;20127;48.962;8.342;2023-07-24T03:22:20;17.15;;;9.30;;
33824;SDS011;20127;48.962;8.342;2023-07-24T03:25:22;15.20;;;10.60;;
33824;SDS011;20127;48.962;8.342;2023-07-24T03:28:25;10.38;;;8.20;;
33824;SDS011;20127;48.962;8.342;2023-07-24T03:31:27;14.50;;;9.60;;
33824;SDS011;20127;48.962;8.342;2023-07-24T03:34:28;12.13;;;8.27;;
33824;SDS011;20127;48.962;8.342;2023-07-24T03:37:30;11.40;;;9.30;;
33824;SDS011;20127;48.962;8.342;2023-07-24T03:40:32;13.65;;;8.40;;
33824;SDS011;20127;48.962;8.342;2023-07-24T03:43:35;12.02;;;9.20;;
33824;SDS011;20127;48.962;8.342;2023-07-24T03:46:37;12.23;;;7.95;;
33824;SDS011;20127;48.962;8.342;2023-07-24T03:49:39;14.55;;;11.20;;
33824;SDS011;20127;48.962;8.342;2023-07-24T03:52:40;17.70;;;9.20;;
33824;SDS011;20127;48.962;8.342;2023-07-24T03:55:42;10.18;;;8.30;;
33824;SDS011;20127;48.962;8.342;2023-07-24T03:58:45;10.10;;;8.07;;
33824;SDS011;20127;48.962;8.342;2023-07-24T04:01:47;11.55;;;8.52;;
33824;SDS011;20127;48.962;8.342;2023-07-24T04:04:49;11.65;;;8.90;;
33824;SDS011;20127;48.962;8.342;2023-07-24T04:07:50;13.55;;;9.93;;
33824;SDS011;20127;48.962;8.342;2023-07-24T04:10:52;13.77;;;9.60;;
33824;SDS011;20127;48.962;8.342;2023-07-24T04:13:57;11.15;;;7.95;;
33824;SDS011;20127;48.962;8.342;2023-07-24T04:16:59;13.27;;;9.23;;
33824;SDS011;20127;48.962;8.342;2023-07-24T04:20:00;14.15;;;10.60;;
33824;SDS011;20127;48.962;8.342;2023-07-24T04:23:03;13.23;;;7.07;;
33824;SDS011;20127;48.962;8.342;2023-07-24T04:26:04;11.57;;;8.80;;
33824;SDS011;20127;48.962;8.342;2023-07-24T04:29:07;11.70;;;9.15;;
33824;SDS011;20127;48.962;8.342;2023-07-24T04:32:09;14.75;;;10.38;;
33824;SDS011;20127;48.962;8.342;2023-07-24T04:35:11;15.10;;;9.25;;
33824;SDS011;20127;48.962;8.342;2023-07-24T04:38:13;13.40;;;9.80;;
33824;SDS011;20127;48.962;8.342;2023-07-24T04:41:14;12.70;;;10.02;;
33824;SDS011;20127;48.962;8.342;2023-07-24T04:44:18;12.75;;;10.57;;
33824;SDS011;20127;48.962;8.342;2023-07-24T04:47:19;11.23;;;10.02;;
33824;SDS011;20127;48.962;8.342;2023-07-24T04:50:21;12.23;;;9.43;;
33824;SDS011;20127;48.962;8.342;2023-07-24T04:53:23;11.52;;;8.65;;
33824;SDS011;20127;48.962;8.342;2023-07-24T04:56:25;13.30;;;9.18;;
33824;SDS011;20127;48.962;8.342;2023-07-24T04:59:28;11.38;;;8.55;;
33824;SDS011;20127;48.962;8.342;2023-07-24T05:02:29;12.15;;;9.15;;
33824;SDS011;20127;48.962;8.342;2023-07-24T05:05:31;15.20;;;9.13;;
33824;SDS011;20127;48.962;8.342;2023-07-24T05:08:33;9.95;;;8.15;;
33824;SDS011;20127;48.962;8.342;2023-07-24T05:11:34;13.38;;;9.57;;
33824;SDS011;20127;48.962;8.342;2023-07-24T05:14:37;12.02;;;9.45;;
33824;SDS011;20127;48.962;8.342;2023-07-24T05:17:39;16.60;;;9.07;;
33824;SDS011;20127;48.962;8.342;2023-07-24T05:20:42;13.25;;;9.63;;
33824;SDS011;20127;48.962;8.342;2023-07-24T05:23:45;11.77;;;9.30;;
33824;SDS011;20127;48.962;8.342;2023-07-24T05:26:47;14.13;;;8.65;;
33824;SDS011;20127;48.962;8.342;2023-07-24T05:29:50;13.23;;;8.60;;
33824;SDS011;20127;48.962;8.342;2023-07-24T05:32:51;12.90;;;8.32;;
33824;SDS011;20127;48.962;8.342;2023-07-24T05:35:57;10.63;;;8.63;;
33824;SDS011;20127;48.962;8.342;2023-07-24T05:38:59;15.50;;;8.48;;
33824;SDS011;20127;48.962;8.342;2023-07-24T05:42:00;11.93;;;8.90;;
33824;SDS011;20127;48.962;8.342;2023-07-24T05:45:04;9.82;;;7.95;;
33824;SDS011;20127;48.962;8.342;2023-07-24T05:48:07;15.20;;;10.35;;
33824;SDS011;20127;48.962;8.342;2023-07-24T05:51:08;13.10;;;8.15;;
33824;SDS011;20127;48.962;8.342;2023-07-24T05:54:10;15.45;;;8.25;;
33824;SDS011;20127;48.962;8.342;2023-07-24T05:57:12;11.68;;;9.45;;
33824;SDS011;20127;48.962;8.342;2023-07-24T06:00:15;11.98;;;9.55;;
33824;SDS011;20127;48.962;8.342;2023-07-24T06:03:17;17.02;;;8.80;;
33824;SDS011;20127;48.962;8.342;2023-07-24T06:06:19;12.82;;;8.77;;
33824;SDS011;20127;48.962;8.342;2023-07-24T06:09:21;19.85;;;9.18;;
33824;SDS011;20127;48.962;8.342;2023-07-24T06:12:23;15.57;;;9.95;;
33824;SDS011;20127;48.962;8.342;2023-07-24T06:15:26;17.67;;;8.63;;
33824;SDS011;20127;48.962;8.342;2023-07-24T06:18:27;11.90;;;8.52;;
33824;SDS011;20127;48.962;8.342;2023-07-24T06:21:29;15.68;;;9.23;;
33824;SDS011;20127;48.962;8.342;2023-07-24T06:24:31;18.60;;;9.48;;
33824;SDS011;20127;48.962;8.342;2023-07-24T06:27:32;12.00;;;8.73;;
33824;SDS011;20127;48.962;8.342;2023-07-24T06:30:35;12.13;;;8.95;;
33824;SDS011;20127;48.962;8.342;2023-07-24T06:33:39;14.68;;;9.88;;
33824;SDS011;20127;48.962;8.342;2023-07-24T06:36:40;13.63;;;10.05;;
33824;SDS011;20127;48.962;8.342;2023-07-24T06:39:42;11.65;;;8.57;;
33824;SDS011;20127;48.962;8.342;2023-07-24T06:42:44;13.93;;;10.00;;
33824;SDS011;20127;48.962;8.342;2023-07-24T06:45:48;14.23;;;8.60;;
33824;SDS011;20127;48.962;8.342;2023-07-24T06:48:49;13.48;;;10.43;;
33824;SDS011;20127;48.962;8.342;2023-07-24T06:51:51;15.82;;;10.20;;
33824;SDS011;20127;48.962;8.342;2023-07-24T06:54:53;14.93;;;10.23;;
33824;SDS011;20127;48.962;8.342;2023-07-24T06:57:54;13.30;;;7.75;;
33824;SDS011;20127;48.962;8.342;2023-07-24T07:00:57;16.52;;;8.88;;
33824;SDS011;20127;48.962;8.342;2023-07-24T07:03:59;16.95;;;10.45;;
33824;SDS011;20127;48.962;8.342;2023-07-24T07:07:00;18.00;;;10.77;;
33824;SDS011;20127;48.962;8.342;2023-07-24T07:10:02;19.30;;;11.00;;
33824;SDS011;20127;48.962;8.342;2023-07-24T07:13:05;16.83;;;11.27;;
33824;SDS011;20127;48.962;8.342;2023-07-24T07:16:08;18.38;;;11.57;;
33824;SDS011;20127;48.962;8.342;2023-07-24T07:19:10;14.32;;;10.93;;
33824;SDS011;20127;48.962;8.342;2023-07-24T07:22:11;30.58;;;17.13;;
33824;SDS011;20127;48.962;8.342;2023-07-24T07:25:13;28.80;;;18.33;;
33824;SDS011;20127;48.962;8.342;2023-07-24T07:28:15;23.58;;;14.32;;
33824;SDS011;20127;48.962;8.342;2023-07-24T07:31:19;20.50;;;14.18;;
33824;SDS011;20127;48.962;8.342;2023-07-24T07:34:21;18.50;;;13.43;;
33824;SDS011;20127;48.962;8.342;2023-07-24T07:37:23;19.33;;;12.35;;
33824;SDS011;20127;48.962;8.342;2023-07-24T07:40:25;20.80;;;11.32;;
33824;SDS011;20127;48.962;8.342;2023-07-24T07:43:27;17.38;;;12.27;;
33824;SDS011;20127;48.962;8.342;2023-07-24T07:46:30;17.45;;;12.60;;
33824;SDS011;20127;48.962;8.342;2023-07-24T07:49:32;19.30;;;11.80;;
33824;SDS011;20127;48.962;8.342;2023-07-24T07:52:34;18.90;;;13.02;;
33824;SDS011;20127;48.962;8.342;2023-07-24T07:55:36;16.50;;;12.05;;
33824;SDS011;20127;48.962;8.342;2023-07-24T07:58:37;17.30;;;12.32;;
33824;SDS011;20127;48.962;8.342;2023-07-24T08:01:40;16.20;;;12.05;;
33824;SDS011;20127;48.962;8.342;2023-07-24T08:04:42;18.17;;;11.07;;
33824;SDS011;20127;48.962;8.342;2023-07-24T08:07:44;15.73;;;10.82;;
33824;SDS011;20127;48.962;8.342;2023-07-24T08:10:45;13.15;;;9.75;;
33824;SDS011;20127;48.962;8.342;2023-07-24T08:13:47;15.68;;;11.57;;
33824;SDS011;20127;48.962;8.342;2023-07-24T08:16:50;13.07;;;10.35;;
33824;SDS011;20127;48.962;8.342;2023-07-24T08:19:53;17.40;;;11.95;;
33824;SDS011;20127;48.962;8.342;2023-07-24T08:22:54;15.25;;;10.85;;
33824;SDS011;20127;48.962;8.342;2023-07-24T08:25:56;18.20;;;11.07;;
33824;SDS011;20127;48.962;8.342;2023-07-24T08:28:58;16.15;;;10.77;;
33824;SDS011;20127;48.962;8.342;2023-07-24T08:32:01;15.25;;;10.55;;
33824;SDS011;20127;48.962;8.342;2023-07-24T08:35:03;13.88;;;10.48;;
33824;SDS011;20127;48.962;8.342;2023-07-24T08:38:05;13.48;;;8.27;;
33824;SDS011;20127;48.962;8.342;2023-07-24T08:41:07;16.70;;;10.63;;
33824;SDS011;20127;48.962;8.342;2023-07-24T08:44:10;10.65;;;9.18;;
33824;SDS011;20127;48.962;8.342;2023-07-24T08:47:13;12.23;;;8.63;;
33824;SDS011;20127;48.962;8.342;2023-07-24T08:50:16;11.73;;;8.75;;
33824;SDS011;20127;48.962;8.342;2023-07-24T08:53:19;9.98;;;8.05;;
33824;SDS011;20127;48.962;8.342;2023-07-24T08:56:22;11.00;;;8.40;;
33824;SDS011;20127;48.962;8.342;2023-07-24T08:59:24;10.35;;;7.78;;
33824;SDS011;20127;48.962;8.342;2023-07-24T09:02:28;10.48;;;8.18;;
33824;SDS011;20127;48.962;8.342;2023-07-24T09:05:29;8.07;;;6.68;;
33824;SDS011;20127;48.962;8.342;2023-07-24T09:08:32;11.45;;;7.15;;
33824;SDS011;20127;48.962;8.342;2023-07-24T09:11:34;7.47;;;6.78;;
33824;SDS011;20127;48.962;8.342;2023-07-24T09:14:47;10.40;;;8.23;;
33824;SDS011;20127;48.962;8.342;2023-07-24T09:17:50;11.93;;;7.45;;
33824;SDS011;20127;48.962;8.342;2023-07-24T09:20:52;10.32;;;7.50;;
33824;SDS011;20127;48.962;8.342;2023-07-24T09:23:54;11.57;;;7.63;;
33824;SDS011;20127;48.962;8.342;2023-07-24T09:26:56;9.65;;;7.32;;
33824;SDS011;20127;48.962;8.342;2023-07-24T09:29:57;11.57;;;8.15;;
33824;SDS011;20127;48.962;8.342;2023-07-24T09:33:01;12.40;;;7.93;;
33824;SDS011;20127;48.962;8.342;2023-07-24T09:36:03;12.35;;;7.00;;
33824;SDS011;20127;48.962;8.342;2023-07-24T09:39:07;9.00;;;7.18;;
33824;SDS011;20127;48.962;8.342;2023-07-24T09:42:11;10.80;;;8.00;;
33824;SDS011;20127;48.962;8.342;2023-07-24T09:45:13;17.08;;;7.90;;
33824;SDS011;20127;48.962;8.342;2023-07-24T09:48:17;17.13;;;7.57;;
33824;SDS011;20127;48.962;8.342;2023-07-24T09:51:19;9.52;;;7.90;;
33824;SDS011;20127;48.962;8.342;2023-07-24T09:54:22;10.00;;;7.35;;
33824;SDS011;20127;48.962;8.342;2023-07-24T09:57:27;12.20;;;7.43;;
33824;SDS011;20127;48.962;8.342;2023-07-24T10:00:30;9.98;;;8.85;;
33824;SDS011;20127;48.962;8.342;2023-07-24T10:03:34;10.05;;;8.38;;
33824;SDS011;20127;48.962;8.342;2023-07-24T10:06:39;8.63;;;7.53;;
33824;SDS011;20127;48.962;8.342;2023-07-24T10:09:42;9.35;;;7.03;;
33824;SDS011;20127;48.962;8.342;2023-07-24T10:12:44;9.77;;;8.60;;
33824;SDS011;20127;48.962;8.342;2023-07-24T10:15:46;10.95;;;9.48;;
33824;SDS011;20127;48.962;8.342;2023-07-24T10:18:50;9.23;;;8.18;;
33824;SDS011;20127;48.962;8.342;2023-07-24T10:21:52;9.15;;;7.28;;
33824;SDS011;20127;48.962;8.342;2023-07-24T10:24:54;10.35;;;7.45;;
33824;SDS011;20127;48.962;8.342;2023-07-24T10:28:00;11.05;;;7.97;;
33824;SDS011;20127;48.962;8.342;2023-07-24T10:31:06;9.00;;;7.38;;
33824;SDS011;20127;48.962;8.342;2023-07-24T10:34:11;11.15;;;8.27;;
33824;SDS011;20127;48.962;8.342;2023-07-24T10:37:13;13.98;;;9.07;;
33824;SDS011;20127;48.962;8.342;2023-07-24T10:40:21;8.93;;;7.95;;
33824;SDS011;20127;48.962;8.342;2023-07-24T10:43:23;10.60;;;8.50;;
33824;SDS011;20127;48.962;8.342;2023-07-24T10:46:34;10.18;;;8.05;;
33824;SDS011;20127;48.962;8.342;2023-07-24T10:49:38;13.70;;;7.60;;
33824;SDS011;20127;48.962;8.342;2023-07-24T10:52:43;9.45;;;6.80;;
33824;SDS011;20127;48.962;8.342;2023-07-24T10:55:46;9.57;;;7.28;;
33824;SDS011;20127;48.962;8.342;2023-07-24T10:58:48;11.10;;;8.38;;
33824;SDS011;20127;48.962;8.342;2023-07-24T11:01:49;10.27;;;7.75;;
33824;SDS011;20127;48.962;8.342;2023-07-24T11:04:52;11.07;;;7.70;;
33824;SDS011;20127;48.962;8.342;2023-07-24T11:07:54;10.05;;;8.25;;
33824;SDS011;20127;48.962;8.342;2023-07-24T11:10:56;10.40;;;7.95;;
33824;SDS011;20127;48.962;8.342;2023-07-24T11:14:02;9.57;;;7.03;;
33824;SDS011;20127;48.962;8.342;2023-07-24T11:17:04;11.88;;;8.30;;
33824;SDS011;20127;48.962;8.342;2023-07-24T11:20:09;12.63;;;7.78;;
33824;SDS011;20127;48.962;8.342;2023-07-24T11:23:12;10.60;;;8.00;;
33824;SDS011;20127;48.962;8.342;2023-07-24T11:26:14;16.10;;;10.38;;
33824;SDS011;20127;48.962;8.342;2023-07-24T11:29:16;9.75;;;7.97;;
33824;SDS011;20127;48.962;8.342;2023-07-24T11:32:18;8.50;;;6.78;;
33824;SDS011;20127;48.962;8.342;2023-07-24T11:35:21;9.68;;;7.72;;
33824;SDS011;20127;48.962;8.342;2023-07-24T11:38:25;11.82;;;8.00;;
33824;SDS011;20127;48.962;8.342;2023-07-24T11:41:27;13.13;;;7.65;;
33824;SDS011;20127;48.962;8.342;2023-07-24T11:44:28;12.68;;;8.52;;
33824;SDS011;20127;48.962;8.342;2023-07-24T11:47:30;11.48;;;7.13;;
33824;SDS011;20127;48.962;8.342;2023-07-24T11:50:41;10.95;;;7.75;;
33824;SDS011;20127;48.962;8.342;2023-07-24T11:53:44;11.43;;;7.65;;
33824;SDS011;20127;48.962;8.342;2023-07-24T11:56:45;10.02;;;7.00;;
33824;SDS011;20127;48.962;8.342;2023-07-24T11:59:47;8.70;;;6.75;;
33824;SDS011;20127;48.962;8.342;2023-07-24T12:02:49;8.82;;;6.28;;
33824;SDS011;20127;48.962;8.342;2023-07-24T12:05:53;9.43;;;7.10;;
33824;SDS011;20127;48.962;8.342;2023-07-24T12:09:00;11.13;;;8.02;;
33824;SDS011;20127;48.962;8.342;2023-07-24T12:12:04;13.35;;;6.95;;
33824;SDS011;20127;48.962;8.342;2023-07-24T12:15:15;9.80;;;6.43;;
33824;SDS011;20127;48.962;8.342;2023-07-24T12:18:16;10.25;;;6.03;;
33824;SDS011;20127;48.962;8.342;2023-07-24T12:21:19;9.65;;;5.88;;
33824;SDS011;20127;48.962;8.342;2023-07-24T12:24:21;6.50;;;5.00;;
33824;SDS011;20127;48.962;8.342;2023-07-24T12:27:23;9.73;;;6.70;;
33824;SDS011;20127;48.962;8.342;2023-07-24T12:30:25;6.22;;;5.28;;
33824;SDS011;20127;48.962;8.342;2023-07-24T12:33:27;9.75;;;5.53;;
33824;SDS011;20127;48.962;8.342;2023-07-24T12:36:30;11.25;;;6.65;;
33824;SDS011;20127;48.962;8.342;2023-07-24T12:39:31;9.20;;;6.85;;
33824;SDS011;20127;48.962;8.342;2023-07-24T12:42:33;8.02;;;5.50;;
33824;SDS011;20127;48.962;8.342;2023-07-24T12:45:35;6.65;;;5.82;;
33824;SDS011;20127;48.962;8.342;2023-07-24T12:48:36;9.63;;;5.95;;
33824;SDS011;20127;48.962;8.342;2023-07-24T12:51:39;8.77;;;6.93;;
33824;SDS011;20127;48.962;8.342;2023-07-24T12:54:41;9.45;;;6.13;;
33824;SDS011;20127;48.962;8.342;2023-07-24T12:57:43;8.40;;;5.82;;
33824;SDS011;20127;48.962;8.342;2023-07-24T13:00:45;8.23;;;5.15;;
33824;SDS011;20127;48.962;8.342;2023-07-24T13:03:46;6.75;;;5.45;;
33824;SDS011;20127;48.962;8.342;2023-07-24T13:06:49;8.40;;;6.43;;
33824;SDS011;20127;48.962;8.342;2023-07-24T13:09:51;8.23;;;5.45;;
33824;SDS011;20127;48.962;8.342;2023-07-24T13:12:53;6.80;;;5.15;;
33824;SDS011;20127;48.962;8.342;2023-07-24T13:15:55;5.72;;;4.90;;
33824;SDS011;20127;48.962;8.342;2023-07-24T13:18:56;8.52;;;5.03;;
33824;SDS011;20127;48.962;8.342;2023-07-24T13:21:59;7.95;;;6.45;;
33824;SDS011;20127;48.962;8.342;2023-07-24T13:25:01;7.38;;;5.82;;
33824;SDS011;20127;48.962;8.342;2023-07-24T13:28:03;8.85;;;6.85;;
33824;SDS011;20127;48.962;8.342;2023-07-24T13:31:13;9.45;;;6.78;;
33824;SDS011;20127;48.962;8.342;2023-07-24T13:34:16;8.13;;;5.45;;
33824;SDS011;20127;48.962;8.342;2023-07-24T13:37:20;7.57;;;5.32;;
33824;SDS011;20127;48.962;8.342;2023-07-24T13:40:24;7.57;;;5.22;;
33824;SDS011;20127;48.962;8.342;2023-07-24T13:43:26;11.25;;;5.65;;
33824;SDS011;20127;48.962;8.342;2023-07-24T13:46:28;6.80;;;5.70;;
33824;SDS011;20127;48.962;8.342;2023-07-24T13:49:29;7.82;;;5.90;;
33824;SDS011;20127;48.962;8.342;2023-07-24T13:52:32;7.18;;;6.28;;
33824;SDS011;20127;48.962;8.342;2023-07-24T13:55:34;6.88;;;5.28;;
33824;SDS011;20127;48.962;8.342;2023-07-24T13:58:36;11.00;;;6.55;;
33824;SDS011;20127;48.962;8.342;2023-07-24T14:01:38;16.00;;;6.88;;
33824;SDS011;20127;48.962;8.342;2023-07-24T14:04:39;7.88;;;6.18;;
33824;SDS011;20127;48.962;8.342;2023-07-24T14:07:42;8.73;;;6.60;;
33824;SDS011;20127;48.962;8.342;2023-07-24T14:10:44;7.05;;;5.55;;
33824;SDS011;20127;48.962;8.342;2023-07-24T14:13:46;7.82;;;6.40;;
33824;SDS011;20127;48.962;8.342;2023-07-24T14:16:48;5.97;;;5.28;;
33824;SDS011;20127;48.962;8.342;2023-07-24T14:19:49;6.38;;;5.70;;
33824;SDS011;20127;48.962;8.342;2023-07-24T14:22:52;6.80;;;4.45;;
33824;SDS011;20127;48.962;8.342;2023-07-24T14:25:54;5.70;;;4.60;;
33824;SDS011;20127;48.962;8.342;2023-07-24T14:28:56;7.20;;;5.30;;
33824;SDS011;20127;48.962;8.342;2023-07-24T14:31:58;5.32;;;4.68;;
33824;SDS011;20127;48.962;8.342;2023-07-24T14:35:00;5.07;;;4.57;;
33824;SDS011;20127;48.962;8.342;2023-07-24T14:38:05;6.65;;;5.30;;
33824;SDS011;20127;48.962;8.342;2023-07-24T14:41:07;7.72;;;4.95;;
33824;SDS011;20127;48.962;8.342;2023-07-24T14:44:08;6.28;;;4.40;;
33824;SDS011;20127;48.962;8.342;2023-07-24T14:47:10;5.07;;;4.50;;
33824;SDS011;20127;48.962;8.342;2023-07-24T14:50:13;5.70;;;4.43;;
33824;SDS011;20127;48.962;8.342;2023-07-24T14:53:16;7.30;;;4.28;;
33824;SDS011;20127;48.962;8.342;2023-07-24T14:56:18;6.05;;;4.72;;
33824;SDS011;20127;48.962;8.342;2023-07-24T14:59:20;6.35;;;4.90;;
33824;SDS011;20127;48.962;8.342;2023-07-24T15:02:22;5.45;;;4.50;;
33824;SDS011;20127;48.962;8.342;2023-07-24T15:05:23;7.18;;;5.07;;
33824;SDS011;20127;48.962;8.342;2023-07-24T15:08:27;4.75;;;3.92;;
33824;SDS011;20127;48.962;8.342;2023-07-24T15:11:28;7.28;;;5.70;;
33824;SDS011;20127;48.962;8.342;2023-07-24T15:14:30;5.85;;;4.50;;
33824;SDS011;20127;48.962;8.342;2023-07-24T15:17:32;13.95;;;7.78;;
33824;SDS011;20127;48.962;8.342;2023-07-24T15:20:33;10.45;;;5.88;;
33824;SDS011;20127;48.962;8.342;2023-07-24T15:23:36;6.65;;;4.85;;
33824;SDS011;20127;48.962;8.342;2023-07-24T15:26:38;13.52;;;6.28;;
33824;SDS011;20127;48.962;8.342;2023-07-24T15:29:40;9.63;;;6.60;;
33824;SDS011;20127;48.962;8.342;2023-07-24T15:32:41;12.15;;;7.28;;
33824;SDS011;20127;48.962;8.342;2023-07-24T15:35:43;13.07;;;7.85;;
33824;SDS011;20127;48.962;8.342;2023-07-24T15:38:46;9.35;;;6.93;;
33824;SDS011;20127;48.962;8.342;2023-07-24T15:41:48;10.73;;;6.65;;
33824;SDS011;20127;48.962;8.342;2023-07-24T15:44:50;9.95;;;6.47;;
33824;SDS011;20127;48.962;8.342;2023-07-24T15:47:52;7.05;;;6.07;;
33824;SDS011;20127;48.962;8.342;2023-07-24T15:50:54;11.10;;;5.53;;
33824;SDS011;20127;48.962;8.342;2023-07-24T15:53:58;7.60;;;5.20;;
33824;SDS011;20127;48.962;8.342;2023-07-24T15:57:01;7.00;;;5.25;;
33824;SDS011;20127;48.962;8.342;2023-07-24T16:00:03;11.00;;;5.97;;
33824;SDS011;20127;48.962;8.342;2023-07-24T16:03:08;8.32;;;5.32;;
33824;SDS011;20127;48.962;8.342;2023-07-24T16:06:10;7.38;;;4.53;;
33824;SDS011;20127;48.962;8.342;2023-07-24T16:09:13;8.18;;;5.43;;
33824;SDS011;20127;48.962;8.342;2023-07-24T16:12:15;5.90;;;4.72;;
33824;SDS011;20127;48.962;8.342;2023-07-24T16:15:16;7.47;;;5.03;;
33824;SDS011;20127;48.962;8.342;2023-07-24T16:18:20;9.60;;;4.95;;
33824;SDS011;20127;48.962;8.342;2023-07-24T16:21:23;6.30;;;5.32;;
33824;SDS011;20127;48.962;8.342;2023-07-24T16:24:28;8.10;;;4.93;;
33824;SDS011;20127;48.962;8.342;2023-07-24T16:27:30;4.82;;;3.92;;
33824;SDS011;20127;48.962;8.342;2023-07-24T16:30:32;5.03;;;4.03;;
33824;SDS011;20127;48.962;8.342;2023-07-24T16:33:33;6.32;;;4.90;;
33824;SDS011;20127;48.962;8.342;2023-07-24T16:36:35;7.93;;;5.28;;
33824;SDS011;20127;48.962;8.342;2023-07-24T16:39:39;6.18;;;4.15;;
33824;SDS011;20127;48.962;8.342;2023-07-24T16:42:41;5.65;;;3.47;;
33824;SDS011;20127;48.962;8.342;2023-07-24T16:45:42;6.55;;;3.40;;
33824;SDS011;20127;48.962;8.342;2023-07-24T16:48:46;5.72;;;3.20;;
33824;SDS011;20127;48.962;8.342;2023-07-24T16:51:48;4.50;;;3.20;;
33824;SDS011;20127;48.962;8.342;2023-07-24T16:54:51;6.22;;;3.20;;
33824;SDS011;20127;48.962;8.342;2023-07-24T16:57:52;5.20;;;3.60;;
33824;SDS011;20127;48.962;8.342;2023-07-24T17:00:54;4.95;;;3.42;;
33824;SDS011;20127;48.962;8.342;2023-07-24T17:03:56;6.93;;;3.00;;
33824;SDS011;20127;48.962;8.342;2023-07-24T17:06:57;3.90;;;3.08;;
33824;SDS011;20127;48.962;8.342;2023-07-24T17:10:02;4.38;;;2.63;;
33824;SDS011;20127;48.962;8.342;2023-07-24T17:13:05;4.80;;;3.15;;
33824;SDS011;20127;48.962;8.342;2023-07-24T17:16:07;3.67;;;3.25;;
33824;SDS011;20127;48.962;8.342;2023-07-24T17:19:10;3.63;;;2.65;;
33824;SDS011;20127;48.962;8.342;2023-07-24T17:22:13;2.90;;;2.10;;
33824;SDS011;20127;48.962;8.342;2023-07-24T17:25:16;4.43;;;2.70;;
33824;SDS011;20127;48.962;8.342;2023-07-24T17:28:18;2.50;;;1.90;;
33824;SDS011;20127;48.962;8.342;2023-07-24T17:31:20;4.20;;;2.20;;
33824;SDS011;20127;48.962;8.342;2023-07-24T17:34:21;4.82;;;2.28;;
33824;SDS011;20127;48.962;8.342;2023-07-24T17:37:24;4.78;;;3.40;;
33824;SDS011;20127;48.962;8.342;2023-07-24T17:40:28;3.25;;;2.17;;
33824;SDS011;20127;48.962;8.342;2023-07-24T17:43:29;2.33;;;1.80;;
33824;SDS011;20127;48.962;8.342;2023-07-24T17:46:37;2.60;;;1.88;;
33824;SDS011;20127;48.962;8.342;2023-07-24T17:49:39;7.10;;;1.90;;
33824;SDS011;20127;48.962;8.342;2023-07-24T17:52:41;2.47;;;2.05;;
33824;SDS011;20127;48.962;8.342;2023-07-24T17:55:44;2.63;;;1.98;;
33824;SDS011;20127;48.962;8.342;2023-07-24T17:58:49;2.47;;;1.88;;
33824;SDS011;20127;48.962;8.342;2023-07-24T18:01:51;2.50;;;2.00;;
33824;SDS011;20127;48.962;8.342;2023-07-24T18:04:53;2.45;;;1.73;;